Tiempo atmosférico en la estación meteorológica de Cabo Peñas, Asturias (100 m.)

Fecha
DESCASC
Temp. máxima en grados centígrados (hora)
DESCASC
Temp. mínima en grados centígrados (hora)
DESCASC
Temp. media en grados centígrados
DESCASC
Racha de viento máxima en m/sg (hora)
DESCASC
Velocidad máxima media en intervalos de 10 minutos(hora)
DESCASC
Precipitaciones diarias en mm
DESCASC
Precipitaciones de 00:00 a 06:00 en mm
DESCASC
Precipitaciones de 06:00 a 12:00 en mm
DESCASC
Precipitaciones de 12:00 a 18:00 en mm
DESCASC
Precipitaciones de 18:00 a 24:00 en mm
DESCASC
17-08-2017 -- (--) -- (--) -- 13.89 (22:30) 3.61 (07:50) -- -- -- -- --
16-08-2017 22 (17:20) 16.3 (08:00) 19.1 4.44 (14:40) 3.33 (05:20) -- -- -- -- --
15-08-2017 21.5 (15:40) 18.5 (00:00) 20 6.67 (00:10) 4.72 (00:10) -- -- -- -- --
14-08-2017 23 (13:20) 18.3 (04:30) 20.6 12.78 (00:10) 9.17 (00:40) -- -- -- -- --
13-08-2017 22.8 (12:50) 16.1 (00:00) 19.4 13.33 (15:20) 8.89 (22:20) -- -- -- -- --
12-08-2017 21.5 (11:40) 15.8 (00:00) 18.7 8.89 (19:20) 5.83 (22:50) -- -- -- -- --
11-08-2017 20.9 (16:40) 14.7 (00:00) 17.8 7.5 (21:00) 4.72 (20:40) -- -- -- -- --
10-08-2017 21.3 (16:10) 14.6 (00:00) 17.9 6.11 (05:30) 3.33 (03:50) -- -- -- -- --
09-08-2017 19.1 (19:30) 14.7 (00:00) 16.9 15.83 (04:30) 9.72 (04:30) -- -- -- -- --
08-08-2017 19.6 (18:00) 14.3 (00:00) 17 11.11 (12:20) 6.94 (12:20) -- -- -- -- --
07-08-2017 19.5 (04:50) 16.6 (00:00) 18.1 11.67 (09:40) 6.67 (23:10) -- -- -- -- --
06-08-2017 21.4 (12:50) 16.3 (00:00) 18.8 24.72 (11:20) 7.5 (17:20) -- -- -- -- --
05-08-2017 19.9 (00:30) 16.3 (00:00) 18.1 8.89 (23:10) 5.28 (23:40) -- -- -- -- --
04-08-2017 24 (15:00) 19 (00:00) 21.5 5.83 (00:20) 4.72 (00:40) -- -- -- -- --
03-08-2017 23.5 (16:50) 19 (00:00) 21.3 8.06 (10:50) 4.44 (23:59) 0 0 0 0 0
02-08-2017 23.8 (16:30) 16 (00:00) 19.9 7.22 (18:10) 5.28 (18:10) 0 0 0 0 0
01-08-2017 20.6 (17:10) 15.3 (00:00) 18 6.39 (12:20) 3.89 (19:40) 0.1 0 0.1 0 0
31-07-2017 20.6 (13:30) 15.8 (00:00) 18.2 7.22 (16:30) 3.89 (23:50) 0 0 0 0 0
30-07-2017 21.8 (01:40) 18.5 (00:00) 20.1 8.61 (18:20) 5.56 (18:40) 0 0 0 0 0
29-07-2017 25.2 (16:20) 19.6 (00:00) 22.4 7.22 (17:00) 5.28 (17:30) 0 0 0 0 0
28-07-2017 22.8 (14:30) 17.4 (00:00) 20.1 5.28 (22:40) 4.17 (22:50) 0 0 0 0 0
27-07-2017 22.4 (11:50) 16.6 (00:00) 19.5 7.78 (14:30) 4.72 (12:40) 0 0 0 0 0
26-07-2017 -- (--) -- (--) -- 6.94 (15:30) 3.61 (17:00) 0 0 0 0 0
25-07-2017 21 (17:50) 16.9 (00:00) 18.9 6.39 (15:50) 2.5 (01:00) 0 0 0 0 0
24-07-2017 19.4 (19:00) 16.1 (00:00) 17.8 13.89 (11:00) 7.78 (06:10) 3.5 2.9 0.5 0.1 0
23-07-2017 22.1 (18:10) 15.7 (00:00) 18.9 14.44 (20:40) 8.33 (20:40) 0 0 0 0 0
22-07-2017 19.6 (15:00) 16.1 (00:00) 17.9 11.39 (09:10) 5.83 (19:40) 0 0 0 0 0
21-07-2017 21.5 (17:40) 13.6 (00:00) 17.6 8.89 (15:20) 3.89 (15:50) 0 0 0 0 0
20-07-2017 19.4 (17:10) 16 (00:00) 17.7 16.67 (08:10) 8.61 (08:10) 0.1 0.1 0 0 0
19-07-2017 22.9 (13:10) 17.6 (00:00) 20.3 11.94 (21:10) 6.39 (21:00) 0.2 0 0.2 0 0

Gráficas

Temp. máximas Temp. mínimas Temp. medias Precipitaciones Rachas de viento máximas Velocidades máximas media en intervalos de 10 minutos

Datos horarios

Fecha y hora oficial Temperatura (ºC) Velocidad del viento (km/h) Dirección del viento Racha (km/h) Dirección de racha Precipitación (mm) Presión (hPa) Tendencia (hPa) Humedad (%)
2017-08-17 23:00:00 -- 2 Oeste -- -- -- -- -- --
2017-08-17 22:00:00 -- 0 Calma 12 Norte -- -- -- --
2017-08-17 21:00:00 -- 2 Norte 14 Norte -- -- -- --
2017-08-17 20:00:00 -- 0 Calma 11 Norte -- -- -- --
2017-08-17 19:00:00 -- 0 Calma 16 Nordeste -- -- -- --
2017-08-17 18:00:00 -- 0 Calma 20 Sudeste -- -- -- --
2017-08-17 17:00:00 -- 2 Sudeste 19 Este -- -- -- --
2017-08-17 16:00:00 -- 3 Este 15 Este -- -- -- --
2017-08-17 15:00:00 -- 0 Calma 12 Nordeste -- -- -- --
2017-08-17 14:00:00 -- 0 Calma 13 Norte -- -- -- --
2017-08-17 13:00:00 -- 0 Calma 12 Oeste -- -- -- --
2017-08-17 12:00:00 -- 0 Calma 11 Sudoeste -- -- -- --
2017-08-17 11:00:00 21.6 5 Sudoeste 13 Sudoeste -- -- -- 75
2017-08-17 10:00:00 21.2 7 Sudoeste 14 Sudoeste -- -- -- 77
2017-08-17 09:00:00 19.5 11 Sudoeste 14 Sudoeste -- -- -- 79
2017-08-17 08:00:00 18.7 13 Sudoeste 15 Sudoeste -- -- -- 81
2017-08-17 07:00:00 18.7 9 Sudoeste 10 Sudoeste -- -- -- 82
2017-08-17 06:00:00 19.2 6 Sudoeste 8 Sudoeste -- -- -- 78
2017-08-17 05:00:00 19.1 3 Sudoeste 4 Sur -- -- -- 80
2017-08-17 04:00:00 19.4 3 Sur 5 Sur -- -- -- 78
2017-08-17 03:00:00 19.7 0 Calma 6 Sudeste -- -- -- 77
2017-08-17 02:00:00 19.6 2 Sudeste 5 Sudeste -- -- -- 73
2017-08-17 01:00:00 19.7 0 Calma 4 Sur -- -- -- 71
2017-08-17 00:00:00 19.6 3 Sudoeste 8 Sur -- -- -- 72
2017-08-16 23:00:00 19.4 3 Sur 8 Sudeste -- -- -- 71
2017-08-16 22:00:00 19.8 0 Calma 7 Sudeste -- -- -- 68
2017-08-16 21:00:00 20.7 2 Sudeste 8 Este -- -- -- 66
2017-08-16 20:00:00 21 4 Sudeste 11 Este -- -- -- 66
2017-08-16 19:00:00 21.3 7 Este 14 Este -- -- -- 66
2017-08-16 18:00:00 21.4 8 Este 15 Nordeste -- -- -- 66
2017-08-16 17:00:00 21.3 4 Norte 8 Norte -- -- -- 66
2017-08-16 16:00:00 21.3 5 Norte 15 Norte -- -- -- 71
2017-08-16 15:00:00 20.7 6 Norte 16 Noroeste -- -- -- 71
2017-08-16 14:00:00 20 7 Norte 10 Norte -- -- -- 77
2017-08-16 13:00:00 20.1 5 Noroeste 14 Noroeste -- -- -- 77
2017-08-16 12:00:00 20.7 5 Noroeste 13 Noroeste -- -- -- 83
2017-08-16 11:00:00 19.5 8 Oeste 12 Oeste -- -- -- 86
2017-08-16 10:00:00 19.5 8 Oeste 13 Oeste -- -- -- 89
2017-08-16 09:00:00 18.3 9 Sudoeste 13 Sudoeste -- -- -- 90
2017-08-16 08:00:00 17 12 Oeste 14 Oeste -- -- -- 91
2017-08-16 07:00:00 17.5 10 Oeste 14 Oeste -- -- -- 89
2017-08-16 06:00:00 17.1 11 Sudoeste 14 Sudoeste -- -- -- 88
2017-08-16 05:00:00 18.1 11 Oeste 14 Oeste -- -- -- 87
2017-08-16 04:00:00 18.5 7 Oeste 11 Oeste -- -- -- 85
2017-08-16 03:00:00 18.7 8 Oeste 12 Sudoeste -- -- -- 86
2017-08-16 02:00:00 18.7 8 Sudoeste 12 Sudoeste -- -- -- 88
2017-08-16 01:00:00 18.7 12 Sudoeste 14 Sudoeste -- -- -- 90
2017-08-16 00:00:00 18.9 8 Oeste 13 Oeste -- -- -- 90
2017-08-15 23:00:00 19 8 Oeste 12 Oeste -- -- -- 91
2017-08-15 22:00:00 19.2 6 Oeste 12 Oeste -- -- -- 90
2017-08-15 21:00:00 19.2 7 Oeste 12 Oeste -- -- -- 90
2017-08-15 20:00:00 19.9 6 Oeste 12 Oeste -- -- -- 86
2017-08-15 19:00:00 20.3 5 Oeste 14 Noroeste -- -- -- 84
2017-08-15 18:00:00 20.7 8 Noroeste 15 Noroeste -- -- -- 78
2017-08-15 17:00:00 21 5 Noroeste 14 Norte -- -- -- 77
2017-08-15 16:00:00 20.6 8 Noroeste 19 Norte -- -- -- 78
2017-08-15 15:00:00 20.1 14 Noroeste 22 Noroeste -- -- -- 85
2017-08-15 14:00:00 20.9 11 Oeste 21 Oeste -- -- -- 86
2017-08-15 13:00:00 19.8 10 Oeste 19 Oeste -- -- -- 91
2017-08-15 12:00:00 19.2 9 Oeste 15 Oeste -- -- -- 93
2017-08-15 11:00:00 19 10 Oeste 17 Oeste -- -- -- 94
2017-08-15 10:00:00 18.9 9 Oeste 12 Oeste -- -- -- 94
2017-08-15 09:00:00 19.2 6 Sudoeste 11 Sudoeste -- -- -- 94
2017-08-15 08:00:00 18.9 7 Sudoeste 11 Oeste -- -- -- 94
2017-08-15 07:00:00 18.9 9 Oeste 14 Oeste -- -- -- 94
2017-08-15 06:00:00 19 6 Oeste 11 Oeste -- -- -- 94
2017-08-15 05:00:00 19 7 Oeste 10 Oeste -- -- -- 94
2017-08-15 04:00:00 19 8 Oeste 12 Oeste -- -- -- 93
2017-08-15 03:00:00 19.6 7 Noroeste 13 Noroeste -- -- -- 93
2017-08-15 02:00:00 19.6 9 Noroeste 15 Noroeste -- -- -- 94
2017-08-15 01:00:00 19.1 11 Oeste 24 Oeste -- -- -- 94
2017-08-15 00:00:00 19.4 16 Oeste 26 Oeste -- -- -- 94
2017-08-14 23:00:00 19.5 18 Oeste 39 Oeste -- -- -- 93
2017-08-14 22:00:00 19.3 25 Oeste 36 Oeste -- -- -- 94
2017-08-14 21:00:00 19.7 24 Oeste 38 Oeste -- -- -- 89
2017-08-14 20:00:00 19.9 23 Oeste 37 Oeste -- -- -- 88
2017-08-14 19:00:00 19.9 21 Oeste 38 Oeste -- -- -- 89
2017-08-14 18:00:00 20 18 Oeste 35 Oeste -- -- -- 93
2017-08-14 17:00:00 19.3 15 Oeste 29 Oeste -- -- -- 91
2017-08-14 16:00:00 19.8 14 Oeste 24 Oeste -- -- -- 89
2017-08-14 15:00:00 21.7 4 Sur 12 Sudoeste -- -- -- 77
2017-08-14 14:00:00 21.7 9 Este 14 Este -- -- -- 77
2017-08-14 13:00:00 22.7 8 Este 15 Sudeste -- -- -- 74
2017-08-14 12:00:00 21.8 9 Este 14 Sudeste -- -- -- 77
2017-08-14 11:00:00 20.2 11 Este 23 Este -- -- -- 83
2017-08-14 10:00:00 20.3 13 Sudeste 28 Sudeste -- -- -- 82
2017-08-14 09:00:00 19.3 21 Sudeste 32 Sudeste -- -- -- 88
2017-08-14 08:00:00 18.6 24 Sudeste 39 Este -- -- -- 93
2017-08-14 07:00:00 18.6 26 Este 44 Sudeste -- -- -- 93
2017-08-14 06:00:00 18.8 28 Este 41 Sudeste -- -- -- 90
2017-08-14 05:00:00 18.8 20 Este 34 Sudeste -- -- -- 93
2017-08-14 04:00:00 18.6 27 Este 42 Sudeste -- -- -- 93
2017-08-14 03:00:00 19 31 Este 45 Este -- -- -- 91
2017-08-14 02:00:00 19 31 Este 45 Este -- -- -- 91
2017-08-14 01:00:00 19.1 32 Este 46 Este -- -- -- 90
2017-08-14 00:00:00 19.2 30 Este 48 Este -- -- -- 90
2017-08-13 23:00:00 19.6 30 Este 44 Este -- -- -- 85
2017-08-13 22:00:00 19.8 30 Este 43 Este -- -- -- 86
2017-08-13 21:00:00 19.7 28 Este 46 Este -- -- -- 86
2017-08-13 20:00:00 20.2 27 Este 44 Este -- -- -- 83
2017-08-13 19:00:00 20.7 29 Este 43 Este -- -- -- 77
2017-08-13 18:00:00 21.6 27 Este 44 Este -- -- -- 73
2017-08-13 17:00:00 21.4 27 Este 43 Este -- -- -- 72
2017-08-13 16:00:00 21.1 25 Este 48 Este -- -- -- 72
2017-08-13 15:00:00 21 25 Este 42 Este -- -- -- 72
2017-08-13 14:00:00 21.9 26 Este 36 Este -- -- -- 69
2017-08-13 13:00:00 21.6 22 Este 32 Este -- -- -- 68
2017-08-13 12:00:00 21.7 21 Este 31 Este -- -- -- 71
2017-08-13 11:00:00 20.7 18 Este 26 Sudeste -- -- -- 76
2017-08-13 10:00:00 19.6 16 Este 23 Este -- -- -- 77
2017-08-13 09:00:00 18.5 14 Este 19 Sudeste -- -- -- 84
2017-08-13 08:00:00 16.6 13 Sudeste 18 Sudeste -- -- -- 90
2017-08-13 07:00:00 16.5 15 Sudeste 20 Sudeste -- -- -- 91
2017-08-13 06:00:00 16.5 14 Sudeste 20 Sudeste -- -- -- 91
2017-08-13 05:00:00 16.8 10 Sudeste 15 Sudeste -- -- -- 90
2017-08-13 04:00:00 17.2 11 Sudeste 19 Sudeste -- -- -- 90
2017-08-13 03:00:00 17.5 12 Sudeste 18 Este -- -- -- 90
2017-08-13 02:00:00 18.2 14 Este 27 Este -- -- -- 86
2017-08-13 01:00:00 18.4 18 Este 26 Este -- -- -- 84
2017-08-13 00:00:00 18.5 17 Este 29 Este -- -- -- 83
2017-08-12 23:00:00 18.5 21 Este 30 Este -- -- -- 81
2017-08-12 22:00:00 18.4 18 Este 30 Este -- -- -- 81
2017-08-12 21:00:00 18.8 17 Este 30 Este -- -- -- 77
2017-08-12 20:00:00 19.4 19 Este 32 Este -- -- -- 76
2017-08-12 19:00:00 19.6 16 Sudeste 27 Este -- -- -- 75
2017-08-12 18:00:00 20.1 16 Este 28 Este -- -- -- 73
2017-08-12 17:00:00 20.4 18 Este 27 Este -- -- -- 71
2017-08-12 16:00:00 20.5 16 Sudeste 26 Este -- -- -- 70
2017-08-12 15:00:00 20.8 16 Este 27 Sudeste -- -- -- 70
2017-08-12 14:00:00 20.6 16 Este 25 Este -- -- -- 71
2017-08-12 13:00:00 20.3 16 Este 26 Este -- -- -- 70
2017-08-12 12:00:00 21 16 Este 21 Este -- -- -- 66
2017-08-12 11:00:00 20.5 14 Este 21 Sudeste -- -- -- 66
2017-08-12 10:00:00 19.2 12 Este 17 Sudeste -- -- -- 70
2017-08-12 09:00:00 17 10 Sudeste 17 Sudeste -- -- -- 78
2017-08-12 08:00:00 17 13 Sudeste 18 Sudeste -- -- -- 78
2017-08-12 07:00:00 16.2 12 Sudeste 15 Sudeste -- -- -- 85
2017-08-12 06:00:00 16.3 11 Sudeste 14 Sudeste -- -- -- 86
2017-08-12 05:00:00 16.3 7 Sudeste 13 Sudeste -- -- -- 85
2017-08-12 04:00:00 16.2 7 Sudeste 16 Sudeste -- -- -- 86
2017-08-12 03:00:00 16.4 9 Sudeste 14 Sudeste -- -- -- 88
2017-08-12 02:00:00 17 12 Sudeste 22 Este -- -- -- 85
2017-08-12 01:00:00 17.7 13 Este 22 Este -- -- -- 79
2017-08-12 00:00:00 17.7 15 Este 25 Este -- -- -- 77
2017-08-11 23:00:00 18.4 14 Este 27 Este -- -- -- 75
2017-08-11 22:00:00 18 15 Este 26 Este -- -- -- 76
2017-08-11 21:00:00 18.3 15 Este 27 Este -- -- -- 71
2017-08-11 20:00:00 18.8 14 Este 26 Este -- -- -- 69
2017-08-11 19:00:00 19.3 14 Este 26 Este -- -- -- 67
2017-08-11 18:00:00 19.7 14 Este 26 Sudeste -- -- -- 66
2017-08-11 17:00:00 20.2 9 Este 22 Nordeste -- -- -- 65
2017-08-11 16:00:00 20.1 7 Este 24 Este -- -- -- 65
2017-08-11 15:00:00 20.2 13 Este 23 Este -- -- -- 65
2017-08-11 14:00:00 20 8 Este 21 Este -- -- -- 65
2017-08-11 13:00:00 19.6 3 Nordeste 17 Este -- -- -- 67
2017-08-11 12:00:00 19.8 8 Este 15 Este -- -- -- 66
2017-08-11 11:00:00 20 3 Nordeste 10 Sudeste -- -- -- 67
2017-08-11 10:00:00 19.1 4 Este 9 Este -- -- -- 66
2017-08-11 09:00:00 18.4 5 Sudeste 9 Sudeste -- -- -- 72
2017-08-11 08:00:00 15.7 3 Sur 9 Sudeste -- -- -- 77
2017-08-11 07:00:00 15.1 4 Sur 12 Sur -- -- -- 81
2017-08-11 06:00:00 15 4 Sur 12 Sudeste -- -- -- 78
2017-08-11 05:00:00 16.1 4 Sudeste 12 Sudeste -- -- -- 77
2017-08-11 04:00:00 16.4 7 Sudeste 11 Sudeste -- -- -- 76
2017-08-11 03:00:00 16.7 4 Sudeste 9 Este -- -- -- 73
2017-08-11 02:00:00 17.7 5 Este 16 Este -- -- -- 71
2017-08-11 01:00:00 17.6 5 Este 12 Este -- -- -- 70
2017-08-11 00:00:00 17.6 6 Este 14 Sudeste -- -- -- 69
2017-08-10 23:00:00 17.7 4 Sudeste 14 Sur -- -- -- 69
2017-08-10 22:00:00 17.5 4 Sudeste 18 Nordeste -- -- -- 67
2017-08-10 21:00:00 18.1 4 Este 18 Este -- -- -- 66
2017-08-10 20:00:00 19.2 4 Sudeste 16 Sudeste -- -- -- 61
2017-08-10 19:00:00 18.9 3 Sudeste 15 Sudeste -- -- -- 65
2017-08-10 18:00:00 19.5 3 Sudeste 15 Este -- -- -- 61
2017-08-10 17:00:00 20.8 0 Calma 15 Oeste -- -- -- 58
2017-08-10 16:00:00 20.3 3 Sur 17 Sudoeste -- -- -- 57
2017-08-10 15:00:00 20.1 0 Calma 17 Oeste -- -- -- 61
2017-08-10 14:00:00 20.3 4 Sur 14 Sudeste -- -- -- 63
2017-08-10 13:00:00 18.2 3 Sudeste 19 Noroeste -- -- -- 73
2017-08-10 12:00:00 18.2 8 Oeste 16 Oeste -- -- -- 72
2017-08-10 11:00:00 17.6 9 Sudoeste 16 Sudoeste -- -- -- 76
2017-08-10 10:00:00 17.1 11 Sudoeste 15 Sudoeste -- -- -- 78
2017-08-10 09:00:00 15.3 7 Sudoeste 14 Oeste -- -- -- 85
2017-08-10 08:00:00 15.5 8 Oeste 18 Oeste -- -- -- 82
2017-08-10 07:00:00 14.7 10 Oeste 15 Oeste -- -- -- 86
2017-08-10 06:00:00 15.1 7 Oeste 22 Noroeste -- -- -- 85
2017-08-10 05:00:00 14.7 9 Sudoeste 15 Sudoeste -- -- -- 86
2017-08-10 04:00:00 15.3 12 Sudoeste 15 Sudoeste -- -- -- 82
2017-08-10 03:00:00 15.3 8 Oeste 13 Noroeste -- -- -- 76
2017-08-10 02:00:00 16.5 3 Sudeste 10 Sur -- -- -- 69
2017-08-10 01:00:00 17.2 2 Sur 19 Sudeste -- -- -- 68
2017-08-10 00:00:00 17.3 3 Noroeste 17 Sur -- -- -- 66
2017-08-09 23:00:00 17.2 0 Calma 24 Noroeste -- -- -- 65
2017-08-09 22:00:00 17.5 12 Noroeste 23 Noroeste -- -- -- 62
2017-08-09 21:00:00 17.5 11 Noroeste 24 Norte -- -- -- 61
2017-08-09 20:00:00 18.4 5 Noroeste 27 Norte -- -- -- 57
2017-08-09 19:00:00 18.7 2 Norte 30 Noroeste -- -- -- 60
2017-08-09 18:00:00 18.1 18 Noroeste 32 Noroeste -- -- -- 57
2017-08-09 17:00:00 18.3 16 Noroeste 29 Noroeste -- -- -- 57
2017-08-09 16:00:00 17.7 17 Noroeste 35 Norte -- -- -- 62
2017-08-09 15:00:00 18.3 20 Noroeste 35 Noroeste -- -- -- 54
2017-08-09 14:00:00 16.4 21 Noroeste 49 Noroeste -- -- -- 68
2017-08-09 13:00:00 18.2 16 Noroeste 39 Noroeste -- -- -- 58
2017-08-09 12:00:00 17.2 22 Noroeste 40 Norte -- -- -- 58
2017-08-09 11:00:00 17.6 22 Noroeste 37 Noroeste -- -- -- 54
2017-08-09 10:00:00 17.1 18 Norte 41 Noroeste -- -- -- 59
2017-08-09 09:00:00 16.8 22 Noroeste 41 Noroeste -- -- -- 57
2017-08-09 08:00:00 16.5 24 Noroeste 42 Norte -- -- -- 61
2017-08-09 07:00:00 16.7 21 Norte 48 Norte -- -- -- 63
2017-08-09 06:00:00 16.7 20 Noroeste 37 Noroeste -- -- -- 69
2017-08-09 05:00:00 16.2 25 Noroeste 57 Noroeste -- -- -- 72
2017-08-09 04:00:00 16.3 18 Oeste 49 Oeste -- -- -- 74
2017-08-09 03:00:00 15.4 17 Sudoeste 30 Sudoeste -- -- -- 91
2017-08-09 02:00:00 16.1 16 Oeste 44 Oeste -- -- -- 85
2017-08-09 01:00:00 17.2 14 Oeste 32 Oeste -- -- -- 65
2017-08-09 00:00:00 17.7 12 Oeste 27 Oeste -- -- -- 63
2017-08-08 23:00:00 18 12 Noroeste 28 Noroeste -- -- -- 63
2017-08-08 22:00:00 17.8 15 Noroeste 30 Norte -- -- -- 62
2017-08-08 21:00:00 18 15 Noroeste 33 Noroeste -- -- -- 60
2017-08-08 20:00:00 18.2 14 Noroeste 34 Noroeste -- -- -- 60
2017-08-08 19:00:00 18.7 14 Noroeste 30 Noroeste -- -- -- 58
2017-08-08 18:00:00 19.1 10 Noroeste 29 Noroeste -- -- -- 55
2017-08-08 17:00:00 19 12 Noroeste 35 Oeste -- -- -- 58
2017-08-08 16:00:00 18.8 16 Oeste 33 Oeste -- -- -- 72
2017-08-08 15:00:00 17.7 15 Oeste 32 Oeste -- -- -- 77
2017-08-08 14:00:00 16.9 20 Oeste 39 Oeste -- -- -- 82
2017-08-08 13:00:00 16.9 23 Oeste 40 Oeste -- -- -- 77
2017-08-08 12:00:00 18.3 18 Oeste 35 Oeste -- -- -- 78
2017-08-08 11:00:00 17.3 22 Oeste 37 Oeste -- -- -- 86
2017-08-08 10:00:00 15.7 20 Oeste 31 Oeste 0 -- -- 90
2017-08-08 09:00:00 15 19 Sudoeste 39 Oeste 0 -- -- 93
2017-08-08 08:00:00 14.7 15 Sudoeste 27 Oeste 0 -- -- 92
2017-08-08 07:00:00 14.5 17 Sudoeste 31 Sudoeste 0 -- -- 91
2017-08-08 06:00:00 15.3 15 Oeste 29 Oeste 0 -- -- 90
2017-08-08 05:00:00 15.6 16 Sudoeste 27 Sudoeste 0 -- -- 78
2017-08-08 04:00:00 15.8 18 Sudoeste 25 Sudoeste 0 -- -- 81
2017-08-08 03:00:00 16.1 17 Sudoeste 24 Sudoeste 0 -- -- 81
2017-08-08 02:00:00 17.5 12 Noroeste 33 Noroeste 0 -- -- 67
2017-08-08 01:00:00 17.7 17 Noroeste 37 Noroeste 0 -- -- 67
2017-08-08 00:00:00 17.8 19 Noroeste 35 Noroeste 0 -- -- 66
2017-08-07 23:00:00 17.7 21 Noroeste 36 Noroeste 0 -- -- 65
2017-08-07 22:00:00 17.8 11 Noroeste 39 Noroeste 0 -- -- 66
2017-08-07 21:00:00 16.7 0 Calma 37 Noroeste 0 -- -- 82
2017-08-07 20:00:00 17.7 0 Calma 31 Norte 0 -- -- 75
2017-08-07 19:00:00 17.7 0 Calma 28 Este 0 -- -- 77
2017-08-07 18:00:00 18.2 6 Sudeste 25 Sudeste 0 -- -- 76
2017-08-07 17:00:00 18.4 6 Sur 23 Sur 0 -- -- 77
2017-08-07 16:00:00 18.6 6 Sur 21 Sudeste 0 -- -- 77
2017-08-07 15:00:00 18.7 8 Este 30 Sudeste 0 -- -- 77
2017-08-07 14:00:00 18.7 12 Este 41 Nordeste 0 -- -- 76
2017-08-07 13:00:00 17.8 11 Este 33 Nordeste 0 -- -- 81
2017-08-07 12:00:00 17.1 8 Sudeste 28 Este 0 -- -- 91
2017-08-07 11:00:00 17.4 14 Sudeste 35 Sudeste 0 -- -- 91
2017-08-07 10:00:00 17.8 17 Este 42 Este 0 -- -- 91
2017-08-07 09:00:00 18.4 22 Este 42 Este 0 -- -- 88
2017-08-07 08:00:00 18.9 18 Sudeste 38 Sudeste 0 -- -- 81
2017-08-07 07:00:00 18.5 12 Este 24 Sudeste 0 -- -- 82
2017-08-07 06:00:00 18.8 17 Sudeste 28 Este 0 -- -- 79
2017-08-07 05:00:00 19.1 17 Este 34 Este 0 -- -- 78
2017-08-07 04:00:00 18.8 14 Este 26 Este 0 -- -- 82
2017-08-07 03:00:00 18.7 19 Este 29 Este 0 -- -- 85
2017-08-07 02:00:00 18.4 13 Este 22 Este 0 -- -- 83
2017-08-07 01:00:00 18.6 14 Sudeste 30 Este 0 -- -- 77
2017-08-07 00:00:00 19 19 Este 37 Este 0 -- -- 71
2017-08-06 23:00:00 19.2 18 Sudeste 35 Este 0 -- -- 67
2017-08-06 22:00:00 19.1 20 Sudeste 40 Este 0 -- -- 67
2017-08-06 21:00:00 19 22 Sudeste 39 Sudeste 0 -- -- 67
2017-08-06 20:00:00 19.1 22 Sudeste 41 Este 0 -- -- 66
2017-08-06 19:00:00 19.6 25 Este 53 Sudeste 0 -- -- 66
2017-08-06 18:00:00 19.5 23 Este 41 Este 0 -- -- 65
2017-08-06 17:00:00 19.8 23 Sudeste 48 Sudeste 0 -- -- 66
2017-08-06 16:00:00 19.8 24 Sudeste 45 Sudeste 0 -- -- 65
2017-08-06 15:00:00 20.5 20 Este 39 Este 0 -- -- 65
2017-08-06 14:00:00 19.5 25 Este 39 Este 0 -- -- 64
2017-08-06 13:00:00 19.2 19 Este 38 Este 0 -- -- 65
2017-08-06 12:00:00 18.7 24 Este 89 Este 0 -- -- 65
2017-08-06 11:00:00 19 26 Este 40 Este 0 -- -- 61
2017-08-06 10:00:00 19 26 Este 44 Este 0 -- -- 62
2017-08-06 09:00:00 18.2 25 Este 42 Este 0 -- -- 65
2017-08-06 08:00:00 18.1 25 Este 48 Este 0 -- -- 65
2017-08-06 07:00:00 18.2 21 Este 47 Sudeste 0 -- -- 63
2017-08-06 06:00:00 18.1 21 Sudeste 41 Sudeste 0 -- -- 65
2017-08-06 05:00:00 18.2 17 Sudeste 38 Sudeste 0 -- -- 66
2017-08-06 04:00:00 18.2 19 Sudeste 34 Sudeste 0 -- -- 69
2017-08-06 03:00:00 17.9 16 Sudeste 35 Sudeste 0 -- -- 75
2017-08-06 02:00:00 17 17 Este 33 Sudeste 0 -- -- 93
2017-08-06 01:00:00 16.7 16 Sudeste 27 Sudeste 0 -- -- 91
2017-08-06 00:00:00 18.4 13 Sudeste 32 Sudeste 0 -- -- 77
2017-08-05 23:00:00 18 17 Este 29 Este 0 -- -- 86
2017-08-05 22:00:00 16.8 11 Este 26 Este 0 -- -- 94
2017-08-05 21:00:00 16.5 12 Este 26 Este 0 -- -- 94
2017-08-05 20:00:00 16.9 9 Este 23 Sudeste 0 -- -- 94
2017-08-05 19:00:00 16.9 5 Este 21 Sudeste 0 -- -- 93
2017-08-05 18:00:00 18.2 5 Este 17 Sudeste 0 -- -- 82
2017-08-05 17:00:00 18.9 3 Sur 19 Este 0 -- -- 77
2017-08-05 16:00:00 18.9 3 Sur 17 Este 0 -- -- 78
2017-08-05 15:00:00 19.2 4 Este 16 Sudeste 0 -- -- 72
2017-08-05 14:00:00 18.8 4 Sur 23 Sur 0 -- -- 76
2017-08-05 13:00:00 18.9 5 Sur 17 Sur 0 -- -- 77
2017-08-05 12:00:00 18.9 4 Sur 15 Este 0 -- -- 72
2017-08-05 11:00:00 18.2 4 Norte 16 Sudeste 0 -- -- 70
2017-08-05 10:00:00 18 3 Sudeste 16 Sudeste 0 -- -- 77
2017-08-05 09:00:00 18 2 Sur 12 Sudoeste 0 -- -- 77
2017-08-05 08:00:00 17.4 0 Calma 14 Oeste 0 -- -- 91
2017-08-05 07:00:00 16.6 3 Sur 21 Nordeste 0 -- -- 94
2017-08-05 06:00:00 16.6 3 Sur 21 Este 0 -- -- 94
2017-08-05 05:00:00 17 5 Sudeste 24 Nordeste 0 -- -- 94
2017-08-05 04:00:00 17.4 4 Sudeste 23 Nordeste 0 -- -- 94
2017-08-05 03:00:00 17.6 8 Sudeste 21 Sur 0 -- -- 94
2017-08-05 02:00:00 18.2 6 Sur 20 Sudoeste 0 -- -- 94
2017-08-05 01:00:00 19.3 3 Sur 16 Sudeste 0 -- -- 94
2017-08-05 00:00:00 19.8 3 Sudeste 15 Este 0 -- -- 94
2017-08-04 23:00:00 20.4 0 Calma 7 Sudeste 0 -- -- 94
2017-08-04 22:00:00 20.3 0 Calma 8 Norte 0 -- -- 94
2017-08-04 21:00:00 20.6 4 Norte 6 Norte 0 -- -- 94
2017-08-04 20:00:00 21.3 0 Calma 7 Sur 0 -- -- 89
2017-08-04 19:00:00 21.8 2 Nordeste 9 Este 0 -- -- 88
2017-08-04 18:00:00 21.4 5 Este 13 Este 0 -- -- 87
2017-08-04 17:00:00 22.1 5 Este 15 Este 0 -- -- 86
2017-08-04 16:00:00 22.4 5 Nordeste 13 Nordeste 0 -- -- 84
2017-08-04 15:00:00 23.9 3 Sudeste 16 Norte 0 -- -- 81
2017-08-04 14:00:00 22 8 Norte 16 Norte 0 -- -- 89
2017-08-04 13:00:00 22.2 3 Norte 17 Noroeste 0 -- -- 87
2017-08-04 12:00:00 22.8 5 Norte 18 Noroeste 0 -- -- 84
2017-08-04 11:00:00 22.2 6 Noroeste 15 Noroeste 0 -- -- 76
2017-08-04 10:00:00 23.2 5 Noroeste 8 Noroeste 0 -- -- 71
2017-08-04 09:00:00 22.6 4 Oeste 10 Oeste 0 -- -- 73
2017-08-04 08:00:00 21.8 9 Sudoeste 14 Sur 0 -- -- 72
2017-08-04 07:00:00 21.3 8 Sur 16 Sur 0 -- -- 77
2017-08-04 06:00:00 20.2 5 Sur 12 Sudoeste 0 -- -- 83
2017-08-04 05:00:00 19.9 2 Sur 7 Sudoeste 0 -- -- 86
2017-08-04 04:00:00 19.6 7 Sudeste 17 Sudeste 0 -- -- 87
2017-08-04 03:00:00 19.4 14 Sudeste 20 Sudeste 0 -- -- 88
2017-08-04 02:00:00 19.4 15 Sudeste 21 Sudeste 0 -- -- 86
2017-08-04 01:00:00 19.5 17 Sudeste 21 Sudeste 0 -- -- 85
2017-08-04 00:00:00 19.5 16 Sudeste 23 Este 0 -- -- 85
2017-08-03 23:00:00 19.7 14 Este 20 Este 0 -- -- 81
2017-08-03 22:00:00 19.5 8 Este 16 Este 0 -- -- 78
2017-08-03 21:00:00 20.5 10 Este 17 Este 0 -- -- 76
2017-08-03 20:00:00 21.1 10 Este 14 Este 0 -- -- 71
2017-08-03 19:00:00 21.3 8 Este 12 Este 0 -- -- 70
2017-08-03 18:00:00 22.5 3 Sudeste 9 Sudeste 0 -- -- 66
2017-08-03 17:00:00 23.2 2 Este 12 Noroeste 0 -- -- 66
2017-08-03 16:00:00 21.3 5 Norte 15 Noroeste 0 -- -- 72
2017-08-03 15:00:00 20.9 6 Noroeste 22 Noroeste 0 -- -- 76
2017-08-03 14:00:00 20.6 10 Noroeste 20 Noroeste 0 -- -- 76
2017-08-03 13:00:00 20.8 10 Noroeste 21 Noroeste 0 -- -- 73
2017-08-03 12:00:00 20.2 8 Noroeste 24 Norte 0 -- -- 76
2017-08-03 11:00:00 19.8 9 Noroeste 29 Noroeste -- -- -- 89
2017-08-03 10:00:00 20.5 8 Noroeste 20 Norte -- -- -- 93
2017-08-03 09:00:00 20.3 3 Noroeste 17 Norte -- -- -- 90
2017-08-03 08:00:00 21.6 5 Sudeste 8 Sudeste -- -- -- 65
2017-08-03 07:00:00 21.1 4 Sur 11 Sudoeste -- -- -- 67
2017-08-03 06:00:00 21 0 Calma 11 Oeste -- -- -- 66
2017-08-03 05:00:00 19 10 Sudoeste 12 Oeste -- -- -- 75
2017-08-03 04:00:00 20.4 0 Calma 12 Sudoeste -- -- -- 66
2017-08-03 03:00:00 20.4 4 Sur 15 Sudeste -- -- -- 72
2017-08-03 02:00:00 19.8 12 Sudeste 17 Sudeste -- -- -- 89
2017-08-03 01:00:00 20.1 10 Sudeste 13 Sudeste -- -- -- 89
2017-08-03 00:00:00 20 7 Este 11 Este -- -- -- 88
2017-08-02 23:00:00 19.9 9 Sudeste 18 Sudeste -- -- -- 85
2017-08-02 22:00:00 20.1 14 Sudeste 20 Sudeste -- -- -- 83
2017-08-02 21:00:00 20.8 12 Sudeste 18 Sudeste -- -- -- 74
2017-08-02 20:00:00 21.8 13 Este 22 Sudeste -- -- -- 71
2017-08-02 19:00:00 22.1 16 Sudeste 26 Sudeste -- -- -- 67
2017-08-02 18:00:00 22.5 17 Este 23 Sudeste -- -- -- 64
2017-08-02 17:00:00 22.9 15 Este 22 Este -- -- -- 60
2017-08-02 16:00:00 23.1 11 Este 16 Este -- -- -- 57
2017-08-02 15:00:00 22.1 9 Este 14 Este -- -- -- 58
2017-08-02 14:00:00 21.5 3 Nordeste 9 Noroeste -- -- -- 67
2017-08-02 13:00:00 21.4 0 Calma 14 Noroeste -- -- -- 66
2017-08-02 12:00:00 21.3 4 Oeste 12 Oeste -- -- -- 60
2017-08-02 11:00:00 20.7 4 Noroeste 10 Noroeste -- -- -- 67
2017-08-02 10:00:00 20.1 5 Sudoeste 10 Sudoeste -- -- -- 66
2017-08-02 09:00:00 18.6 9 Sudoeste 15 Sudoeste -- -- -- 76
2017-08-02 08:00:00 16.8 13 Sudoeste 17 Sudoeste -- -- -- 82
2017-08-02 07:00:00 16.7 15 Sudoeste 18 Sudoeste -- -- -- 87
2017-08-02 06:00:00 16.1 14 Sudoeste 18 Oeste -- -- -- 94
2017-08-02 05:00:00 17.1 14 Oeste 20 Sudoeste -- -- -- 94
2017-08-02 04:00:00 17.2 11 Sudoeste 15 Sudoeste -- -- -- 90
2017-08-02 03:00:00 17.7 5 Sur 16 Sudeste -- -- -- 89
2017-08-02 02:00:00 17.9 6 Sudeste 19 Sudeste -- -- -- 89
2017-08-02 01:00:00 17.7 14 Sudeste 18 Sudeste -- -- -- 91
2017-08-02 00:00:00 17.7 11 Sudeste 15 Sudeste -- -- -- 90
2017-08-01 23:00:00 17.4 9 Sudeste 13 Sudeste -- -- -- 90
2017-08-01 22:00:00 17.8 9 Sudeste 18 Este -- -- -- 90
2017-08-01 21:00:00 18.1 12 Este 19 Este -- -- -- 87
2017-08-01 20:00:00 19.3 13 Este 20 Este -- -- -- 81
2017-08-01 19:00:00 19.9 13 Este 18 Este -- -- -- 79
2017-08-01 18:00:00 20.2 7 Este 17 Este -- -- -- 72
2017-08-01 17:00:00 20.4 11 Este 18 Este -- -- -- 74
2017-08-01 16:00:00 19.3 4 Este 11 Sudeste -- -- -- 77
2017-08-01 15:00:00 19.3 6 Este 17 Este -- -- -- 83
2017-08-01 14:00:00 18.2 10 Este 20 Este -- -- -- 88
2017-08-01 13:00:00 19.1 5 Este 23 Este -- -- -- 84
2017-08-01 12:00:00 17.7 3 Nordeste 9 Este -- -- -- 88
2017-08-01 11:00:00 17.6 6 Sudeste 17 Este -- -- -- 91
2017-08-01 10:00:00 17.1 3 Noroeste 9 Nordeste 0 -- -- 89
2017-08-01 09:00:00 16.3 5 Norte 14 Norte 0 -- -- 94
2017-08-01 08:00:00 16.4 4 Noroeste 8 Este 0 -- -- 93
2017-08-01 07:00:00 16 0 Calma 13 Norte 0 -- -- 93
2017-08-01 06:00:00 16 6 Este 13 Este 0 -- -- 94
2017-08-01 05:00:00 15.6 4 Nordeste 11 Norte 0 -- -- 94
2017-08-01 04:00:00 15.8 2 Sur 15 Este 0 -- -- 94
2017-08-01 03:00:00 16.6 0 Calma 9 Nordeste 0 -- -- 93
2017-08-01 02:00:00 17.2 2 Oeste 19 Nordeste 0 -- -- 88
2017-08-01 01:00:00 17.7 9 Este 20 Este 0 -- -- 85
2017-08-01 00:00:00 16.9 13 Sudeste 22 Sudeste 0 -- -- 91
2017-07-31 23:00:00 17.1 8 Sudeste 13 Este 0 -- -- 89
2017-07-31 22:00:00 17.3 9 Este 14 Este 0 -- -- 88
2017-07-31 21:00:00 17.2 5 Sudeste 13 Sudeste 0 -- -- 89
2017-07-31 20:00:00 17.2 10 Este 17 Sudeste 0 -- -- 90
2017-07-31 19:00:00 16.5 6 Este 21 Sudeste 0 -- -- 94
2017-07-31 18:00:00 17.2 6 Sudeste 24 Este 0 -- -- 94
2017-07-31 17:00:00 18 10 Este 26 Sudeste 0 -- -- 91
2017-07-31 16:00:00 19.6 7 Sudeste 23 Nordeste 0 -- -- 81
2017-07-31 15:00:00 20.1 4 Nordeste 18 Este 0 -- -- 81
2017-07-31 14:00:00 19.7 5 Este 16 Nordeste 0 -- -- 78
2017-07-31 13:00:00 19.9 2 Sur 16 Noroeste 0 -- -- 77
2017-07-31 12:00:00 19.3 5 Noroeste 13 Norte 0 -- -- 77
2017-07-31 11:00:00 19 3 Norte 10 Noroeste 0 -- -- 77
2017-07-31 10:00:00 18.2 5 Noroeste 10 Noroeste 0 -- -- 86
2017-07-31 09:00:00 17 5 Oeste 8 Noroeste 0 -- -- 87
2017-07-31 08:00:00 16.6 4 Sudoeste 12 Sudoeste 0 -- -- 86
2017-07-31 07:00:00 16.3 9 Sudoeste 14 Sudoeste 0 -- -- 91
2017-07-31 06:00:00 16.2 12 Sudoeste 18 Oeste 0 -- -- 93
2017-07-31 05:00:00 16.3 6 Sur 17 Sudoeste 0 -- -- 89
2017-07-31 04:00:00 16.2 3 Sur 12 Sudoeste 0 -- -- 93
2017-07-31 03:00:00 16.7 5 Sudoeste 14 Sudeste 0 -- -- 88
2017-07-31 02:00:00 18.2 4 Sudeste 10 Sudeste 0 -- -- 75
2017-07-31 01:00:00 18.6 0 Calma 14 Oeste 0 -- -- 76
2017-07-31 00:00:00 18.8 2 Oeste 9 Norte 0 -- -- 74
2017-07-30 23:00:00 19 2 Noroeste 15 Noroeste 0 -- -- 72
2017-07-30 22:00:00 18.9 8 Noroeste 21 Noroeste 0 -- -- 68
2017-07-30 21:00:00 19.3 13 Noroeste 23 Noroeste 0 -- -- 70
2017-07-30 20:00:00 19.3 14 Noroeste 30 Noroeste 0 -- -- 67
2017-07-30 19:00:00 19.4 17 Noroeste 31 Noroeste 0 -- -- 70
2017-07-30 18:00:00 19.5 18 Noroeste 31 Noroeste 0 -- -- 68
2017-07-30 17:00:00 20.2 13 Noroeste 22 Norte 0 -- -- 69
2017-07-30 16:00:00 20.5 8 Noroeste 21 Oeste 0 -- -- 68
2017-07-30 15:00:00 20.3 9 Noroeste 28 Noroeste 0 -- -- 73
2017-07-30 14:00:00 20.2 12 Noroeste 23 Noroeste 0 -- -- 71
2017-07-30 13:00:00 20 8 Noroeste 27 Noroeste 0 -- -- 74
2017-07-30 12:00:00 21.2 6 Noroeste 16 Oeste 0 -- -- 71
2017-07-30 11:00:00 20.3 6 Noroeste 24 Noroeste 0 -- -- 73
2017-07-30 10:00:00 19.9 7 Noroeste 22 Noroeste 0 -- -- 75
2017-07-30 09:00:00 19.4 8 Noroeste 30 Noroeste 0 -- -- 81
2017-07-30 08:00:00 19 13 Noroeste 26 Norte 0 -- -- 85
2017-07-30 07:00:00 19.2 15 Noroeste 28 Norte 0 -- -- 85
2017-07-30 06:00:00 19.2 15 Noroeste 28 Noroeste 0 -- -- 85
2017-07-30 05:00:00 19.4 17 Noroeste 26 Noroeste 0 -- -- 91
2017-07-30 04:00:00 19.6 14 Noroeste 27 Noroeste 0 -- -- 90
2017-07-30 03:00:00 20.4 6 Sudoeste 18 Oeste 0 -- -- 85
2017-07-30 02:00:00 21.1 5 Sudoeste 15 Sudoeste 0 -- -- 77
2017-07-30 01:00:00 20.8 6 Sur 15 Sudoeste 0 -- -- 84
2017-07-30 00:00:00 20.9 12 Sudoeste 14 Sudoeste 0 -- -- 86
2017-07-29 23:00:00 21 5 Norte 14 Este 0 -- -- 87
2017-07-29 22:00:00 21.2 2 Sudeste 14 Sudeste 0 -- -- 90
2017-07-29 21:00:00 22.3 0 Calma 14 Sudeste 0 -- -- 81
2017-07-29 20:00:00 23.5 9 Este 22 Este 0 -- -- 68
2017-07-29 19:00:00 24 12 Sudeste 24 Sudeste 0 -- -- 66
2017-07-29 18:00:00 23.9 19 Sudeste 26 Sudeste 0 -- -- 70
2017-07-29 17:00:00 23.6 18 Sudeste 26 Este 0 -- -- 75
2017-07-29 16:00:00 24.2 12 Este 23 Sudeste 0 -- -- 76
2017-07-29 15:00:00 23.1 12 Este 16 Sudeste 0 -- -- 77
2017-07-29 14:00:00 23.4 11 Este 17 Este 0 -- -- 78
2017-07-29 13:00:00 22.7 10 Este 14 Este 0 -- -- 81
2017-07-29 12:00:00 22.3 5 Norte 14 Noroeste 0 -- -- 77
2017-07-29 11:00:00 22 5 Noroeste 10 Noroeste 0 -- -- 74
2017-07-29 10:00:00 21.8 5 Oeste 12 Oeste 0 -- -- 75
2017-07-29 09:00:00 21.7 6 Sudoeste 9 Sudoeste 0 -- -- 77
2017-07-29 08:00:00 20.4 6 Oeste 11 Sudoeste 0 -- -- 78
2017-07-29 07:00:00 20.1 5 Oeste 17 Oeste 0 -- -- 82
2017-07-29 06:00:00 20.3 12 Sudoeste 14 Oeste 0 -- -- 77
2017-07-29 05:00:00 20.9 8 Sudoeste 11 Sudoeste 0 -- -- 69
2017-07-29 04:00:00 20.7 3 Sur 14 Sudeste 0 -- -- 74
2017-07-29 03:00:00 19.9 11 Sudeste 16 Sudeste 0 -- -- 85
2017-07-29 02:00:00 19.9 11 Sudeste 14 Sudeste 0 -- -- 86
2017-07-29 01:00:00 19.9 8 Sudeste 16 Sudeste 0 -- -- 90
2017-07-29 00:00:00 20.1 14 Sudeste 19 Sudeste 0 -- -- 88
2017-07-28 23:00:00 20.2 14 Sudeste 19 Sudeste 0 -- -- 84
2017-07-28 22:00:00 20 12 Sudeste 17 Sudeste 0 -- -- 83
2017-07-28 21:00:00 20.5 12 Este 15 Este 0 -- -- 78
2017-07-28 20:00:00 20.6 8 Este 14 Este 0 -- -- 76
2017-07-28 19:00:00 21.9 9 Este 15 Este 0 -- -- 70
2017-07-28 18:00:00 22 10 Este 16 Este 0 -- -- 70
2017-07-28 17:00:00 21.6 5 Este 16 Sudeste 0 -- -- 71
2017-07-28 16:00:00 22.2 7 Este 15 Sudeste 0 -- -- 66
2017-07-28 15:00:00 21.7 3 Este 14 Este 0 -- -- 69
2017-07-28 14:00:00 22 3 Este 14 Sudeste 0 -- -- 67
2017-07-28 13:00:00 22.4 3 Sudeste 12 Sudeste 0 -- -- 66
2017-07-28 12:00:00 21.8 3 Nordeste 9 Nordeste 0 -- -- 68
2017-07-28 11:00:00 21.1 2 Nordeste 6 Noroeste 0 -- -- 72
2017-07-28 10:00:00 19.6 0 Calma 4 Norte 0 -- -- 78
2017-07-28 09:00:00 18.9 3 Sudeste 6 Sudeste 0 -- -- 78
2017-07-28 08:00:00 18 5 Sudoeste 10 Sudoeste 0 -- -- 86
2017-07-28 07:00:00 17.4 6 Sudoeste 9 Sudoeste 0 -- -- 91
2017-07-28 06:00:00 17.9 4 Oeste 5 Oeste 0 -- -- 91
2017-07-28 05:00:00 18 4 Oeste 11 Oeste 0 -- -- 89
2017-07-28 04:00:00 17.7 3 Sudoeste 8 Sur 0 -- -- 90
2017-07-28 03:00:00 18 7 Sudoeste 9 Sudoeste 0 -- -- 91
2017-07-28 02:00:00 18.1 4 Sudoeste 9 Noroeste 0 -- -- 90
2017-07-28 01:00:00 18.2 5 Noroeste 10 Oeste 0 -- -- 86
2017-07-28 00:00:00 17.8 5 Noroeste 16 Noroeste 0 -- -- 90
2017-07-27 23:00:00 17.7 6 Noroeste 18 Norte 0 -- -- 93
2017-07-27 22:00:00 18.5 4 Noroeste 19 Noroeste 0 -- -- 87
2017-07-27 21:00:00 18.9 4 Noroeste 18 Noroeste 0 -- -- 85
2017-07-27 20:00:00 18.9 5 Noroeste 14 Noroeste 0 -- -- 90
2017-07-27 19:00:00 19 4 Noroeste 17 Norte 0 -- -- 91
2017-07-27 18:00:00 19.4 4 Noroeste 14 Noroeste 0 -- -- 90
2017-07-27 17:00:00 20.2 0 Calma 19 Noroeste 0 -- -- 88
2017-07-27 16:00:00 20.3 2 Norte 26 Norte 0 -- -- 89
2017-07-27 15:00:00 20.1 14 Noroeste 28 Noroeste 0 -- -- 93
2017-07-27 14:00:00 20 8 Noroeste 23 Noroeste 0 -- -- 91
2017-07-27 13:00:00 21.2 15 Noroeste 26 Noroeste 0 -- -- 80
2017-07-27 12:00:00 21.6 10 Noroeste 18 Noroeste 0 -- -- 66
2017-07-27 11:00:00 21.8 6 Oeste 19 Sudoeste 0 -- -- 65
2017-07-27 10:00:00 21 10 Sudoeste 17 Sudoeste 0 -- -- 70
2017-07-27 09:00:00 19.5 8 Sudoeste 12 Sudoeste 0 -- -- 83
2017-07-27 08:00:00 18.1 9 Sudoeste 12 Sudoeste 0 -- -- 89
2017-07-27 07:00:00 17.8 5 Oeste 7 Oeste 0 -- -- 88
2017-07-27 06:00:00 17.6 4 Sur 7 Sur 0 -- -- 88
2017-07-27 05:00:00 17.5 8 Sudoeste 12 Sudoeste 0 -- -- 86
2017-07-27 04:00:00 17.3 7 Sur 11 Sudoeste 0 -- -- 85
2017-07-27 03:00:00 17.4 10 Sudoeste 13 Sudoeste 0 -- -- 85
2017-07-27 02:00:00 17.2 11 Sudoeste 13 Sudoeste 0 -- -- 88
2017-07-27 01:00:00 17.1 10 Sudoeste 14 Oeste 0 -- -- 89
2017-07-27 00:00:00 17.4 10 Oeste 14 Oeste 0 -- -- 86
2017-07-26 23:00:00 18 12 Sudoeste 15 Sudoeste 0 -- -- 84
2017-07-26 22:00:00 18.5 6 Oeste 13 Oeste 0 -- -- 78
2017-07-26 21:00:00 19.5 6 Oeste 17 Oeste 0 -- -- 74
2017-07-26 20:00:00 19.4 9 Noroeste 18 Noroeste 0 -- -- 73
2017-07-26 19:00:00 20.1 8 Noroeste 20 Noroeste 0 -- -- 72
2017-07-26 18:00:00 20.3 5 Noroeste 21 Noroeste 0 -- -- 71
2017-07-26 17:00:00 19.8 13 Noroeste 24 Noroeste 0 -- -- 72
2017-07-26 16:00:00 19.7 10 Noroeste 25 Noroeste 0 -- -- 75
2017-07-26 15:00:00 19.7 10 Noroeste 23 Oeste 0 -- -- 72
2017-07-26 14:00:00 20 9 Oeste 21 Oeste 0 -- -- 72
2017-07-26 13:00:00 19.5 10 Oeste 21 Oeste 0 -- -- 73
2017-07-26 12:00:00 19.6 9 Oeste 18 Sudoeste 0 -- -- 74
2017-07-26 11:00:00 18.7 9 Oeste 17 Oeste 0 -- -- 76
2017-07-26 10:00:00 18.4 8 Oeste 14 Oeste 0 -- -- 82
2017-07-26 09:00:00 17.5 9 Sudoeste 14 Sudoeste 0 -- -- 85
2017-07-26 08:00:00 17.5 7 Sudoeste 12 Sudoeste 0 -- -- 85
2017-07-26 07:00:00 17.7 5 Noroeste 14 Noroeste 0 -- -- 78
2017-07-26 06:00:00 17.3 5 Oeste 10 Sudoeste 0 -- -- 82
2017-07-26 05:00:00 17.4 6 Sudoeste 11 Sudoeste 0 -- -- 82
2017-07-26 04:00:00 17.1 2 Sur 8 Sudoeste 0 -- -- 82
2017-07-26 03:00:00 17.1 5 Oeste 8 Oeste 0 -- -- 82
2017-07-26 02:00:00 17.2 2 Oeste 5 Oeste 0 -- -- 77
2017-07-26 01:00:00 17.4 4 Sudoeste 5 Sudoeste 0 -- -- 77
2017-07-26 00:00:00 17.4 2 Sudoeste 7 Oeste 0 -- -- 76
2017-07-25 23:00:00 17.4 2 Oeste 10 Norte 0 -- -- 76
2017-07-25 22:00:00 17.8 3 Oeste 14 Norte 0 -- -- 74
2017-07-25 21:00:00 18.6 6 Noroeste 17 Noroeste 0 -- -- 70
2017-07-25 20:00:00 19 4 Noroeste 15 Noroeste 0 -- -- 67
2017-07-25 19:00:00 19.5 5 Noroeste 17 Norte 0 -- -- 67
2017-07-25 18:00:00 19.7 5 Noroeste 18 Norte 0 -- -- 66
2017-07-25 17:00:00 20.1 2 Norte 20 Noroeste 0 -- -- 66
2017-07-25 16:00:00 19.5 7 Noroeste 23 Norte 0 -- -- 66
2017-07-25 15:00:00 19.5 6 Noroeste 18 Noroeste 0 -- -- 62
2017-07-25 14:00:00 19.6 6 Noroeste 17 Oeste 0 -- -- 62
2017-07-25 13:00:00 19.7 6 Noroeste 18 Noroeste 0 -- -- 61
2017-07-25 12:00:00 19.6 7 Noroeste 16 Noroeste 0 -- -- 60
2017-07-25 11:00:00 19.1 6 Noroeste 14 Noroeste 0 -- -- 60
2017-07-25 10:00:00 18.6 4 Noroeste 13 Noroeste 0 -- -- 66
2017-07-25 09:00:00 18.5 0 Calma 13 Norte 0 -- -- 71
2017-07-25 08:00:00 17.4 0 Calma 11 Noroeste 0 -- -- 76
2017-07-25 07:00:00 17.5 4 Sudeste 12 Sudoeste 0 -- -- 79
2017-07-25 06:00:00 17.3 2 Sudeste 13 Norte 0 -- -- 84
2017-07-25 05:00:00 17.1 4 Oeste 12 Sudoeste 0 -- -- 88
2017-07-25 04:00:00 17.4 6 Sudoeste 13 Sudoeste 0 -- -- 89
2017-07-25 03:00:00 18.1 5 Noroeste 11 Noroeste 0 -- -- 81
2017-07-25 02:00:00 17.9 4 Noroeste 14 Noroeste 0 -- -- 81
2017-07-25 01:00:00 17.9 9 Noroeste 16 Norte 0 -- -- 81
2017-07-25 00:00:00 17.9 0 Calma 18 Norte 0 -- -- 83
2017-07-24 23:00:00 17.8 8 Oeste 17 Oeste 0 -- -- 84
2017-07-24 22:00:00 17.5 11 Oeste 18 Oeste 0 -- -- 86
2017-07-24 21:00:00 18.1 11 Oeste 19 Oeste 0 -- -- 84
2017-07-24 20:00:00 18.4 11 Oeste 22 Oeste 0 -- -- 81
2017-07-24 19:00:00 19.4 10 Oeste 16 Oeste 0 -- -- 78
2017-07-24 18:00:00 18.5 7 Noroeste 36 Noroeste 0 -- -- 85
2017-07-24 17:00:00 17.9 17 Noroeste 30 Norte 0 -- -- 79
2017-07-24 16:00:00 18.5 13 Noroeste 31 Noroeste 0 -- -- 77
2017-07-24 15:00:00 17.8 13 Noroeste 44 Norte 0.1 -- -- 88
2017-07-24 14:00:00 18.6 9 Noroeste 36 Norte 0 -- -- 86
2017-07-24 13:00:00 18.3 15 Noroeste 32 Noroeste 0 -- -- 86
2017-07-24 12:00:00 17.6 20 Oeste 40 Noroeste 0.1 -- -- 91
2017-07-24 11:00:00 17.5 23 Noroeste 50 Noroeste 0 -- -- 88
2017-07-24 10:00:00 18.3 19 Noroeste 44 Noroeste 0 -- -- 83
2017-07-24 09:00:00 18 16 Oeste 32 Oeste 0.1 -- -- 89
2017-07-24 08:00:00 16.9 17 Noroeste 38 Noroeste 0.1 -- -- 91
2017-07-24 07:00:00 16.7 19 Noroeste 45 Noroeste 0.2 -- -- 94
2017-07-24 06:00:00 17.1 24 Noroeste 42 Noroeste 1.5 -- -- 94
2017-07-24 05:00:00 17.1 17 Noroeste 45 Noroeste 0.2 -- -- 94
2017-07-24 04:00:00 17.4 21 Noroeste 49 Noroeste 0.1 -- -- 91
2017-07-24 03:00:00 18.2 18 Noroeste 40 Oeste 0 -- -- 93
2017-07-24 02:00:00 18.1 15 Noroeste 47 Noroeste 0.1 -- -- 94
2017-07-24 01:00:00 17.8 23 Noroeste 48 Noroeste 1 -- -- 94
2017-07-24 00:00:00 18.5 19 Oeste 37 Oeste 0 -- -- 94
2017-07-23 23:00:00 19 17 Noroeste 41 Oeste 0 -- -- 93
2017-07-23 22:00:00 19.3 19 Noroeste 42 Norte 0 -- -- 91
2017-07-23 21:00:00 19.3 21 Noroeste 52 Norte 0 -- -- 90
2017-07-23 20:00:00 20 19 Oeste 39 Noroeste 0 -- -- 86
2017-07-23 19:00:00 20.1 18 Oeste 27 Oeste 0 -- -- 81
2017-07-23 18:00:00 21.2 14 Oeste 24 Oeste 0 -- -- 70
2017-07-23 17:00:00 20.9 11 Noroeste 23 Noroeste 0 -- -- 70
2017-07-23 16:00:00 20.5 9 Oeste 22 Oeste 0 -- -- 68
2017-07-23 15:00:00 20.2 8 Oeste 24 Noroeste 0 -- -- 68
2017-07-23 14:00:00 20.3 14 Noroeste 32 Noroeste 0 -- -- 65
2017-07-23 13:00:00 20.3 8 Oeste 18 Sudoeste 0 -- -- 62
2017-07-23 12:00:00 20.1 12 Oeste 20 Oeste 0 -- -- 61
2017-07-23 11:00:00 19 13 Oeste 22 Sudoeste 0 -- -- 63
2017-07-23 10:00:00 18.4 14 Sudoeste 21 Sudoeste -- -- -- 66
2017-07-23 09:00:00 17.8 12 Oeste 19 Oeste -- -- -- 71
2017-07-23 08:00:00 16.2 12 Sudoeste 17 Oeste -- -- -- 75
2017-07-23 07:00:00 16.6 10 Oeste 23 Oeste -- -- -- 75
2017-07-23 06:00:00 17.1 13 Oeste 29 Oeste -- -- -- 75
2017-07-23 05:00:00 17.3 14 Noroeste 30 Oeste -- -- -- 74
2017-07-23 04:00:00 17.5 21 Oeste 33 Oeste -- -- -- 71
2017-07-23 03:00:00 17.7 15 Oeste 30 Oeste -- -- -- 72
2017-07-23 02:00:00 18.1 13 Oeste 28 Oeste -- -- -- 69
2017-07-23 01:00:00 18.1 14 Oeste 30 Noroeste -- -- -- 71
2017-07-23 00:00:00 18.3 10 Noroeste 30 Noroeste -- -- -- 67
2017-07-22 23:00:00 18.4 12 Oeste 31 Oeste -- -- -- 68
2017-07-22 22:00:00 18.5 10 Noroeste 28 Noroeste -- -- -- 65
2017-07-22 21:00:00 18.5 14 Noroeste 31 Noroeste -- -- -- 63
2017-07-22 20:00:00 18.6 19 Noroeste 35 Noroeste -- -- -- 57
2017-07-22 19:00:00 18.9 18 Noroeste 38 Norte -- -- -- 63
2017-07-22 18:00:00 18.9 17 Noroeste 36 Noroeste -- -- -- 63
2017-07-22 17:00:00 18.3 15 Oeste 30 Noroeste -- -- -- 76
2017-07-22 16:00:00 18.9 12 Noroeste 33 Oeste -- -- -- 66
2017-07-22 15:00:00 19.1 13 Noroeste 37 Oeste -- -- -- 65
2017-07-22 14:00:00 19 13 Noroeste 33 Noroeste -- -- -- 70
2017-07-22 13:00:00 17.4 11 Noroeste 29 Noroeste -- -- -- 77
2017-07-22 12:00:00 16.2 15 Oeste 33 Oeste -- -- -- 91
2017-07-22 11:00:00 16.4 15 Noroeste 36 Norte -- -- -- 90
2017-07-22 10:00:00 17 12 Noroeste 41 Noroeste -- -- -- 89
2017-07-22 09:00:00 16.8 11 Noroeste 28 Noroeste -- -- -- 90
2017-07-22 08:00:00 17.5 12 Noroeste 24 Noroeste -- -- -- 91
2017-07-22 07:00:00 17.7 13 Noroeste 29 Norte -- -- -- 89
2017-07-22 06:00:00 18.6 12 Oeste 18 Oeste -- -- -- 71
2017-07-22 05:00:00 18.5 11 Sudoeste 14 Sudoeste -- -- -- 72
2017-07-22 04:00:00 17.9 10 Sudoeste 13 Sudoeste -- -- -- 76
2017-07-22 03:00:00 17.6 12 Sudoeste 14 Sudoeste -- -- -- 81
2017-07-22 02:00:00 18.1 4 Sur 16 Sudoeste -- -- -- 77
2017-07-22 01:00:00 18.2 12 Sudoeste 17 Sudoeste -- -- -- 75
2017-07-22 00:00:00 18.4 13 Sudoeste 17 Sudoeste -- -- -- 75
2017-07-21 23:00:00 18.4 13 Sudoeste 17 Sudoeste -- -- -- 77
2017-07-21 22:00:00 18.4 9 Sudoeste 15 Oeste -- -- -- 77
2017-07-21 21:00:00 19.1 9 Oeste 18 Noroeste -- -- -- 74
2017-07-21 20:00:00 19.6 9 Noroeste 20 Noroeste -- -- -- 75
2017-07-21 19:00:00 19.5 7 Noroeste 18 Norte -- -- -- 67
2017-07-21 18:00:00 20.8 3 Norte 12 Noroeste -- -- -- 58
2017-07-21 17:00:00 20.9 5 Noroeste 21 Norte -- -- -- 54
2017-07-21 16:00:00 20.9 11 Noroeste 32 Noroeste -- -- -- 53
2017-07-21 15:00:00 20.2 13 Noroeste 30 Noroeste -- -- -- 53
2017-07-21 14:00:00 19.5 8 Oeste 22 Oeste 0 -- -- 57
2017-07-21 13:00:00 19.2 11 Oeste 19 Oeste 0 -- -- 60
2017-07-21 12:00:00 18.5 9 Oeste 23 Oeste 0 -- -- 65
2017-07-21 11:00:00 17.8 11 Oeste 21 Sudoeste 0 -- -- 71
2017-07-21 10:00:00 17.2 13 Sudoeste 21 Sudoeste 0 -- -- 76
2017-07-21 09:00:00 16.1 12 Sudoeste 18 Oeste 0 -- -- 82
2017-07-21 08:00:00 14.7 12 Oeste 16 Oeste 0 -- -- 85
2017-07-21 07:00:00 15 11 Sudoeste 13 Sudoeste 0 -- -- 77
2017-07-21 06:00:00 15.1 10 Sudoeste 14 Sudoeste 0 -- -- 78
2017-07-21 05:00:00 16.1 8 Sudoeste 14 Sudoeste 0 -- -- 81
2017-07-21 04:00:00 16.2 8 Sudoeste 11 Sudoeste 0 -- -- 77
2017-07-21 03:00:00 16.3 7 Sudoeste 10 Sudoeste 0 -- -- 77
2017-07-21 02:00:00 16.8 6 Sudoeste 8 Sudoeste 0 -- -- 70
2017-07-21 01:00:00 17.2 2 Sudoeste 3 Sur 0 -- -- 65
2017-07-21 00:00:00 17.3 0 Calma 3 Sudoeste 0 -- -- 65
2017-07-20 23:00:00 17.5 0 Calma 2 Sudeste 0 -- -- 65
2017-07-20 22:00:00 17.4 0 Calma 3 Sur 0 -- -- 67
2017-07-20 21:00:00 18 0 Calma 7 Noroeste 0 -- -- 65
2017-07-20 20:00:00 17.9 3 Oeste 11 Noroeste 0 -- -- 66
2017-07-20 19:00:00 18.2 5 Noroeste 12 Noroeste 0 -- -- 67
2017-07-20 18:00:00 18.7 5 Noroeste 11 Noroeste 0 -- -- 65
2017-07-20 17:00:00 18.9 6 Noroeste 15 Oeste 0 -- -- 60
2017-07-20 16:00:00 18.3 5 Noroeste 19 Noroeste 0 -- -- 65
2017-07-20 15:00:00 18.1 9 Noroeste 22 Sudoeste 0 -- -- 67
2017-07-20 14:00:00 17.8 9 Noroeste 20 Oeste 0 -- -- 65
2017-07-20 13:00:00 17.9 12 Oeste 21 Oeste 0 -- -- 70
2017-07-20 12:00:00 17.5 11 Oeste 21 Oeste 0 -- -- 74
2017-07-20 11:00:00 17.6 5 Oeste 18 Oeste 0 -- -- 73
2017-07-20 10:00:00 16.9 11 Oeste 19 Noroeste 0 -- -- 75
2017-07-20 09:00:00 16.2 10 Noroeste 60 Noroeste 0 -- -- 76
2017-07-20 08:00:00 16.9 19 Oeste 42 Oeste 0 -- -- 76
2017-07-20 07:00:00 17.5 12 Noroeste 35 Noroeste 0 -- -- 67
2017-07-20 06:00:00 17.6 17 Noroeste 36 Noroeste 0 -- -- 67
2017-07-20 05:00:00 17.7 21 Noroeste 43 Noroeste 0.1 -- -- 67
2017-07-20 04:00:00 17.3 12 Noroeste 42 Norte 0 -- -- 77
2017-07-20 03:00:00 17.7 10 Noroeste 40 Norte 0 -- -- 76
2017-07-20 02:00:00 17.9 19 Noroeste 44 Noroeste 0 -- -- 75
2017-07-20 01:00:00 18.5 12 Noroeste 33 Noroeste 0 -- -- 77
2017-07-20 00:00:00 18.3 16 Oeste 33 Noroeste 0 -- -- 81
2017-07-19 23:00:00 18.4 21 Noroeste 38 Noroeste 0 -- -- 78
2017-07-19 22:00:00 18.3 19 Noroeste 43 Noroeste 0 -- -- 83
2017-07-19 21:00:00 18.3 23 Noroeste 40 Noroeste 0 -- -- 83
2017-07-19 20:00:00 18.8 13 Noroeste 33 Noroeste 0 -- -- 83
2017-07-19 19:00:00 19 15 Noroeste 32 Oeste 0 -- -- 77
2017-07-19 18:00:00 19.1 15 Noroeste 38 Oeste 0 -- -- 78
2017-07-19 17:00:00 19.3 14 Noroeste 29 Noroeste 0 -- -- 77
2017-07-19 16:00:00 20.2 15 Oeste 33 Noroeste 0 -- -- 76
2017-07-19 15:00:00 19.7 10 Noroeste 36 Noroeste 0 -- -- 77
2017-07-19 14:00:00 22.4 3 Nordeste 14 Este 0 -- -- 66
2017-07-19 13:00:00 21.9 8 Este 12 Sudeste 0 -- -- 69
2017-07-19 12:00:00 21.2 3 Norte 8 Noroeste 0 -- -- 71
2017-07-19 11:00:00 21.4 4 Noroeste 6 Noroeste 0 -- -- 74
2017-07-19 10:00:00 20.5 0 Calma 9 Oeste 0 -- -- 77
2017-07-19 09:00:00 19.9 3 Sudoeste 13 Sudoeste 0 -- -- 83
2017-07-19 08:00:00 18.7 4 Sur 12 Sudeste 0.2 -- -- 85
2017-07-19 07:00:00 18.5 4 Sur 11 Sudoeste 0 -- -- 84
2017-07-19 06:00:00 18.3 6 Sur 15 Sur 0 -- -- 84
2017-07-19 05:00:00 18 4 Sur 15 Sudoeste 0 -- -- 84
2017-07-19 04:00:00 18 7 Sur 16 Sur 0 -- -- 84
2017-07-19 03:00:00 18.3 4 Sudeste 17 Sudeste 0 -- -- 78
2017-07-19 02:00:00 18.7 10 Sudeste 17 Sudeste 0 -- -- 81
2017-07-19 01:00:00 18.8 5 Sur 11 Sudoeste 0 -- -- 78
2017-07-19 00:00:00 18.8 6 Sudoeste 8 Sur 0 -- -- 77